FW5213 Weather Reports


Display with metric or nautical units.
time (UTC)temp
F
wind
direction
speed
MPH
gust
MPH
rain 1hr
in
rain 24hr
in
rain mn
in
humidity
%
barometer
mb
20190723044522 59 190 0.0 1.0 0.00 0.00 0.00 83 1017.1
20190723043015 61 190 1.0 3.0 0.00 0.00 0.00 85 1017.0
20190723041524 61 241 3.0 5.0 0.00 0.00 0.00 84 1017.2
20190723040027 61 238 3.0 6.0 0.00 0.00 0.00 84 1017.0
20190723034509 61 236 4.0 6.0 0.00 0.00 0.00 84 1017.2
20190723033030 62 255 3.0 5.0 0.00 0.00 0.00 85 1017.3
20190723031544 62 211 3.0 5.0 0.00 0.00 0.00 82 1017.3
20190723030008 62 198 5.0 7.0 0.00 0.00 0.00 81 1017.2
20190723024533 62 202 4.0 5.0 0.00 0.00 0.00 82 1017.3
20190723023008 62 202 3.0 6.0 0.00 0.00 0.00 82 1017.5
20190723021521 62 224 4.0 8.0 0.00 0.00 0.00 81 1017.2
20190723020006 62 212 3.0 4.0 0.00 0.00 0.00 83 1017.2
20190723014528 62 209 2.0 4.0 0.00 0.00 0.00 82 1017.1
20190723013011 62 221 2.0 5.0 0.00 0.00 0.00 84 1016.7
20190723011503 62 215 3.0 6.0 0.00 0.00 0.00 83 1016.5
20190723010236 62 221 1.0 3.0 0.00 0.00 0.00 82 1016.6
20190723004630 62 269 0.0 4.0 0.00 0.00 0.00 82 1016.3
20190723003215 62 254 2.0 5.0 0.00 0.00 0.00 82 1016.1
20190723001610 62 246 3.0 7.0 0.00 0.00 0.00 83 1015.9
20190723000127 62 232 6.0 11.0 0.00 0.00 0.00 84 1016.0
20190722234732 62 221 10.0 14.0 0.00 0.00 0.00 84 1016.1
20190722233211 63 218 11.0 14.0 0.00 0.00 0.00 84 1016.0
20190722231703 63 214 8.0 12.0 0.00 0.00 0.00 84 1015.8
20190722230149 63 215 5.0 9.0 0.00 0.00 0.00 84 1015.8
20190722224836 63 272 4.0 7.0 0.00 0.00 0.00 83 1015.8
20190722223141 63 260 6.0 8.0 0.00 0.00 0.00 83 1015.7
20190722221648 63 268 7.0 10.0 0.00 0.00 0.00 84 1015.5
20190722220114 63 281 6.0 9.0 0.00 0.00 0.00 83 1015.3
20190722214613 63 275 6.0 8.0 0.00 0.00 0.00 84 1015.2
20190722213223 63 275 7.0 10.0 0.00 0.00 0.00 83 1015.0
20190722211759 63 265 7.0 11.0 0.00 0.00 0.00 83 1014.9
20190722210144 63 273 6.0 10.0 0.00 0.00 0.00 84 1014.9
20190722204650 63 288 7.0 9.0 0.00 0.00 0.00 84 1014.7
20190722203116 63 272 6.0 9.0 0.00 0.00 0.00 82 1014.8
20190722201649 63 271 7.0 10.0 0.00 0.00 0.00 83 1014.9
20190722200105 63 258 7.0 13.0 0.00 0.00 0.00 83 1014.7
20190722194722 63 252 8.0 13.0 0.00 0.00 0.00 83 1014.9
20190722193107 63 243 10.0 13.0 0.00 0.00 0.00 83 1014.9
20190722191615 63 238 9.0 13.0 0.00 0.00 0.00 84 1015.0
20190722190139 63 255 9.0 14.0 0.00 0.00 0.00 83 1015.1
20190722184609 63 229 9.0 14.0 0.00 0.00 0.00 83 1015.5
20190722183140 63 231 10.0 14.0 0.00 0.00 0.00 82 1015.8
20190722181620 64 269 8.0 11.0 0.00 0.00 0.00 81 1016.1
20190722180108 65 339 5.0 9.0 0.00 0.00 0.00 79 1016.2
20190722174648 65 336 6.0 10.0 0.00 0.00 0.00 80 1016.3
20190722173135 64 346 5.0 11.0 0.00 0.00 0.00 83 1016.4
20190722171552 65 333 6.0 11.0 0.00 0.00 0.00 81 1016.6
20190722170110 64 340 6.0 14.0 0.00 0.00 0.00 81 1016.7
20190722164655 64 332 5.0 11.0 0.00 0.00 0.00 81 1016.6
20190722163100 64 327 3.0 8.0 0.00 0.00 0.00 82 1017.0
20190722160110 64 337 2.0 4.0 0.00 0.00 0.00 81 1017.3
20190722154617 63 296 2.0 6.0 0.00 0.00 0.00 82 1017.3
20190722153025 63 290 3.0 6.0 0.00 0.00 0.00 84 1017.3
20190722151612 62 292 5.0 7.0 0.00 0.00 0.00 84 1017.6
20190722150039 62 290 6.0 8.0 0.00 0.00 0.00 85 1017.6
20190722144636 62 274 5.0 7.0 0.00 0.00 0.00 85 1017.4
20190722143026 62 280 5.0 7.0 0.00 0.00 0.00 85 1017.4
20190722141613 62 281 2.0 3.0 0.00 0.00 0.00 83 1017.4
20190722140025 62 42 1.0 3.0 0.00 0.00 0.00 82 1017.2
20190722134534 62 88 0.0 3.0 0.00 0.00 0.00 83 1017.0
20190722133015 62 87 0.0 3.0 0.00 0.00 0.00 83 1016.8
20190722131512 61 83 0.0 3.0 0.00 0.00 0.00 83 1016.8
20190722130022 61 94 0.0 3.0 0.00 0.00 0.00 83 1016.7
20190722124516 61 98 0.0 3.0 0.00 0.00 0.00 84 1016.6
20190722123004 61 127 0.0 3.0 0.00 0.00 0.00 84 1016.6
20190722121503 61 94 0.0 4.0 0.00 0.00 0.00 84 1016.3
20190722120005 61 152 0.0 3.0 0.00 0.00 0.00 84 1016.1
20190722114502 61 91 0.0 2.0 0.00 0.00 0.00 84 1016.0
20190722111634 61 136 0.0 2.0 0.00 0.00 0.00 84 1015.5
20190722110200 61 127 0.0 2.0 0.00 0.00 0.00 84 1015.6
20190722104645 61 129 0.0 3.0 0.00 0.00 0.00 84 1015.3
20190722103242 61 110 0.0 3.0 0.00 0.00 0.00 84 1015.2
20190722101652 61 132 0.0 3.0 0.00 0.00 0.00 85 1014.9
20190722100132 61 173 1.0 6.0 0.00 0.00 0.00 86 1014.8
20190722094626 61 259 4.0 5.0 0.00 0.00 0.00 87 1014.7
20190722093137 61 267 4.0 7.0 0.00 0.00 0.00 87 1014.7
20190722091705 61 267 6.0 7.0 0.00 0.00 0.00 87 1014.8
20190722090146 61 271 3.0 6.0 0.00 0.00 0.00 87 1014.7
20190722084634 61 279 4.0 7.0 0.00 0.00 0.00 87 1014.6
20190722083141 61 271 3.0 6.0 0.00 0.00 0.00 87 1014.6
20190722081644 61 279 3.0 6.0 0.00 0.00 0.00 87 1014.7
20190722080157 61 287 3.0 6.0 0.00 0.00 0.00 87 1014.6
20190722074559 61 290 2.0 6.0 0.00 0.00 0.00 86 1014.9
20190722073148 61 235 3.0 4.0 0.00 0.00 0.00 86 1015.1
20190722071615 61 237 2.0 5.0 0.00 0.00 0.00 86 1015.3
20190722070134 61 229 3.0 5.0 0.00 0.00 0.00 86 1015.5
20190722064557 61 225 3.0 6.0 0.00 0.00 0.00 86 1015.6
20190722063125 61 210 4.0 6.0 0.00 0.00 0.00 86 1015.7
20190722061547 62 213 4.0 6.0 0.00 0.00 0.00 85 1015.9
20190722060113 62 200 4.0 9.0 0.00 0.00 0.00 86 1016.0
20190722054636 62 225 4.0 8.0 0.00 0.00 0.00 86 1016.0
20190722053152 62 225 6.0 9.0 0.00 0.00 0.00 87 1016.1
20190722051622 61 234 4.0 7.0 0.00 0.00 0.00 87 1016.0
20190722050052 61 225 4.0 6.0 0.00 0.00 0.00 87 1016.1